createdAt,value
2023-04-23T00:01:39.348Z,11.70
2023-04-23T00:04:53.724Z,12.10
2023-04-23T00:08:02.150Z,12.00
2023-04-23T00:11:10.408Z,12.80
2023-04-23T00:14:17.642Z,14.10
2023-04-23T00:17:24.184Z,11.10
2023-04-23T00:20:31.146Z,12.20
2023-04-23T00:23:37.642Z,12.10
2023-04-23T00:26:44.015Z,11.60
2023-04-23T00:29:51.864Z,14.40
2023-04-23T00:32:58.560Z,15.70
2023-04-23T00:36:04.681Z,12.40
2023-04-23T00:39:11.663Z,14.80
2023-04-23T00:42:17.936Z,11.40
2023-04-23T00:45:25.387Z,12.60
2023-04-23T00:48:31.748Z,11.60
2023-04-23T00:51:39.050Z,14.50
2023-04-23T00:54:45.562Z,14.40
2023-04-23T00:57:51.762Z,10.60
2023-04-23T01:00:57.982Z,12.50
2023-04-23T01:04:04.639Z,14.30
2023-04-23T01:07:11.286Z,13.10
2023-04-23T01:10:18.610Z,11.50
2023-04-23T01:13:26.867Z,13.90
2023-04-23T01:16:33.513Z,11.20
2023-04-23T01:19:40.296Z,11.10
2023-04-23T01:22:46.937Z,12.00
2023-04-23T01:25:53.560Z,10.00
2023-04-23T01:29:01.161Z,10.90
2023-04-23T01:32:08.533Z,10.60
2023-04-23T01:35:16.800Z,11.30
2023-04-23T01:38:24.146Z,10.70
2023-04-23T01:41:31.559Z,10.50
2023-04-23T01:44:38.272Z,15.00
2023-04-23T01:47:44.852Z,11.70
2023-04-23T01:50:52.112Z,10.10
2023-04-23T01:53:58.320Z,11.30
2023-04-23T01:57:04.822Z,11.20
2023-04-23T02:00:13.219Z,10.30
2023-04-23T02:03:19.527Z,11.90
2023-04-23T02:06:27.017Z,11.80
2023-04-23T02:09:33.176Z,10.00
2023-04-23T02:12:40.346Z,11.00
2023-04-23T02:15:46.955Z,10.90
2023-04-23T02:18:54.980Z,12.00
2023-04-23T02:22:02.267Z,11.50
2023-04-23T02:25:11.191Z,11.80
2023-04-23T02:28:17.707Z,12.40
2023-04-23T02:31:23.996Z,12.10
2023-04-23T02:34:30.492Z,9.70
2023-04-23T02:37:37.137Z,11.10
2023-04-23T02:40:43.974Z,12.90
2023-04-23T02:43:50.280Z,13.50
2023-04-23T02:46:56.749Z,11.30
2023-04-23T02:50:05.965Z,12.30
2023-04-23T02:53:11.990Z,12.90
2023-04-23T02:56:18.250Z,11.90
2023-04-23T02:59:24.841Z,11.00
2023-04-23T03:02:31.113Z,11.80
2023-04-23T03:05:37.507Z,14.50
2023-04-23T03:08:44.442Z,11.20
2023-04-23T03:11:51.289Z,12.20
2023-04-23T03:14:57.549Z,11.50
2023-04-23T03:18:04.694Z,11.30
2023-04-23T03:21:10.938Z,13.70
2023-04-23T03:24:17.365Z,11.30
2023-04-23T03:27:23.455Z,11.30
2023-04-23T03:30:30.673Z,11.20
2023-04-23T03:33:36.970Z,12.20
2023-04-23T03:36:44.950Z,10.50
2023-04-23T03:39:51.507Z,12.70
2023-04-23T03:42:58.102Z,10.80
2023-04-23T03:46:04.777Z,10.80
2023-04-23T03:49:11.575Z,10.40
2023-04-23T03:52:17.840Z,13.80
2023-04-23T03:55:24.249Z,14.00
2023-04-23T03:58:30.609Z,16.90
2023-04-23T04:01:37.385Z,11.50
2023-04-23T04:04:46.838Z,11.40
2023-04-23T04:10:58.132Z,12.30
2023-04-23T04:14:04.333Z,12.20
2023-04-23T04:17:10.868Z,10.60
2023-04-23T04:20:17.408Z,11.20
2023-04-23T04:23:23.853Z,12.00
2023-04-23T04:26:32.673Z,13.20
2023-04-23T04:29:40.925Z,11.60
2023-04-23T04:32:47.481Z,11.10
2023-04-23T04:35:54.927Z,14.30
2023-04-23T04:39:01.179Z,13.20
2023-04-23T04:42:08.070Z,9.20
2023-04-23T04:45:15.259Z,10.30
2023-04-23T04:48:21.875Z,8.70
2023-04-23T04:51:28.723Z,10.10
2023-04-23T04:54:35.092Z,12.10
2023-04-23T04:57:41.346Z,11.40
2023-04-23T05:00:49.338Z,10.70
2023-04-23T05:03:56.609Z,11.20
2023-04-23T05:07:03.082Z,10.60
2023-04-23T05:10:10.617Z,11.00
2023-04-23T05:13:16.933Z,9.30
2023-04-23T05:16:23.556Z,9.60
2023-04-23T05:19:30.146Z,11.50
2023-04-23T05:22:37.113Z,9.80
2023-04-23T05:25:43.379Z,9.70
2023-04-23T05:28:49.799Z,10.80
2023-04-23T05:31:56.174Z,9.80
2023-04-23T05:35:03.141Z,10.40
2023-04-23T05:38:10.215Z,9.10
2023-04-23T05:41:17.274Z,11.30
2023-04-23T05:44:23.535Z,8.80
2023-04-23T05:47:30.172Z,9.90
2023-04-23T05:50:36.623Z,10.50
2023-04-23T05:53:43.023Z,9.00
2023-04-23T05:56:49.337Z,9.80
2023-04-23T05:59:56.504Z,8.20
2023-04-23T06:03:02.830Z,10.10
2023-04-23T06:06:09.487Z,13.00
2023-04-23T06:09:15.690Z,9.40
2023-04-23T06:12:22.943Z,10.70
2023-04-23T06:15:29.496Z,9.60
2023-04-23T06:18:35.659Z,10.90
2023-04-23T06:21:42.363Z,14.60
2023-04-23T06:24:48.819Z,10.90
2023-04-23T06:27:55.091Z,12.80
2023-04-23T06:31:02.845Z,11.30
2023-04-23T06:34:10.724Z,10.80
2023-04-23T06:37:16.904Z,11.30
2023-04-23T06:40:23.308Z,11.90
2023-04-23T06:43:29.881Z,13.60
2023-04-23T06:46:36.144Z,14.40
2023-04-23T06:49:43.092Z,12.50
2023-04-23T06:52:49.515Z,14.70
2023-04-23T06:55:55.704Z,17.20
2023-04-23T06:59:02.398Z,16.50
2023-04-23T07:02:10.410Z,17.90
2023-04-23T07:05:18.054Z,17.80
2023-04-23T07:08:24.815Z,18.50
2023-04-23T07:11:35.072Z,18.10
2023-04-23T07:14:41.467Z,17.60
2023-04-23T07:17:48.407Z,14.60
2023-04-23T07:20:54.747Z,16.10
2023-04-23T07:24:07.278Z,15.60
2023-04-23T07:27:14.328Z,17.80
2023-04-23T07:30:20.957Z,19.50
2023-04-23T07:33:27.942Z,19.20
2023-04-23T07:36:34.283Z,14.90
2023-04-23T07:39:42.577Z,17.20
2023-04-23T07:45:54.776Z,12.40
2023-04-23T07:49:01.380Z,13.00
2023-04-23T07:52:08.354Z,11.10
2023-04-23T07:55:15.323Z,9.80
2023-04-23T07:58:21.604Z,10.50
2023-04-23T08:01:28.359Z,10.10
2023-04-23T08:04:34.616Z,11.70
2023-04-23T08:07:41.167Z,40.00
2023-04-23T08:10:48.049Z,11.20
2023-04-23T08:13:54.280Z,10.40
2023-04-23T08:17:01.740Z,9.50
2023-04-23T08:20:09.752Z,10.60
2023-04-23T08:23:16.151Z,9.50
2023-04-23T08:26:23.854Z,9.30
2023-04-23T08:29:30.341Z,9.70
2023-04-23T08:32:36.927Z,12.30
2023-04-23T08:35:43.173Z,11.10
2023-04-23T08:38:49.710Z,9.40
2023-04-23T08:42:00.606Z,10.20
2023-04-23T08:45:09.650Z,10.60
2023-04-23T08:48:17.159Z,9.80
2023-04-23T08:51:26.127Z,11.40
2023-04-23T08:54:36.243Z,13.20
2023-04-23T09:00:49.170Z,10.10
2023-04-23T09:03:56.760Z,9.70
2023-04-23T09:07:04.699Z,10.50
2023-04-23T09:10:15.355Z,10.80
2023-04-23T09:13:23.572Z,8.70
2023-04-23T09:16:30.130Z,10.70
2023-04-23T09:22:48.359Z,11.70
2023-04-23T09:25:54.626Z,9.00
2023-04-23T09:29:00.858Z,10.10
2023-04-23T09:32:10.304Z,10.80
2023-04-23T09:35:20.178Z,8.80
2023-04-23T09:38:27.267Z,8.60
2023-04-23T09:41:34.038Z,11.60
2023-04-23T09:44:40.768Z,9.00
2023-04-23T09:47:54.031Z,9.60
2023-04-23T09:51:03.645Z,10.00
2023-04-23T09:54:14.663Z,11.30
2023-04-23T09:57:21.055Z,9.60
2023-04-23T10:00:30.869Z,9.50
2023-04-23T10:03:39.230Z,10.70
2023-04-23T10:06:58.013Z,11.20
2023-04-23T10:10:14.271Z,9.60
2023-04-23T10:13:21.534Z,9.60
2023-04-23T10:16:32.964Z,11.30
2023-04-23T10:19:47.782Z,9.60
2023-04-23T10:22:57.943Z,9.20
2023-04-23T10:26:05.369Z,12.50
2023-04-23T10:29:15.705Z,8.40
2023-04-23T10:32:23.393Z,8.80
2023-04-23T10:35:30.390Z,9.70
2023-04-23T10:38:54.609Z,7.90
2023-04-23T10:42:05.298Z,9.30
2023-04-23T10:48:30.914Z,8.30
2023-04-23T10:54:58.094Z,8.80
2023-04-23T10:58:05.595Z,7.70
2023-04-23T11:01:11.965Z,7.60
2023-04-23T11:04:25.363Z,11.20
2023-04-23T11:07:34.790Z,8.60
2023-04-23T11:10:56.337Z,9.50
2023-04-23T11:14:15.636Z,9.30
2023-04-23T11:20:30.017Z,8.40
2023-04-23T11:23:36.635Z,6.90
2023-04-23T11:26:46.591Z,7.00
2023-04-23T11:29:54.861Z,7.50
2023-04-23T11:33:01.438Z,8.10
2023-04-23T11:36:09.227Z,7.30
2023-04-23T11:39:15.473Z,7.50
2023-04-23T11:42:22.213Z,7.20
2023-04-23T11:45:30.009Z,7.60
2023-04-23T11:48:38.015Z,8.20
2023-04-23T11:51:46.097Z,8.60
2023-04-23T11:54:53.499Z,7.30
2023-04-23T11:58:00.247Z,9.50
2023-04-23T12:01:08.373Z,9.00
2023-04-23T12:04:16.386Z,7.00
2023-04-23T12:07:32.818Z,6.30
2023-04-23T12:10:45.565Z,8.50
2023-04-23T12:13:54.111Z,8.40
2023-04-23T12:17:10.046Z,7.00
2023-04-23T12:20:20.160Z,6.70
2023-04-23T12:23:31.179Z,8.10
2023-04-23T12:26:40.392Z,6.70
2023-04-23T12:29:48.091Z,7.30
2023-04-23T12:32:54.627Z,7.20
2023-04-23T12:36:01.042Z,6.70
2023-04-23T12:39:29.534Z,6.80
2023-04-23T12:42:37.448Z,6.30
2023-04-23T12:45:45.701Z,7.00
2023-04-23T12:48:52.300Z,7.40
2023-04-23T12:52:01.414Z,6.50
2023-04-23T12:55:08.436Z,7.50
2023-04-23T12:58:15.019Z,6.90
2023-04-23T13:01:21.593Z,7.30
2023-04-23T13:04:28.636Z,6.90
2023-04-23T13:07:34.952Z,6.20
2023-04-23T13:10:42.225Z,7.40
2023-04-23T13:13:48.382Z,7.30
2023-04-23T13:16:55.412Z,6.50
2023-04-23T13:20:01.688Z,7.30
2023-04-23T13:23:09.279Z,6.70
2023-04-23T13:26:15.506Z,8.70
2023-04-23T13:29:22.005Z,5.70
2023-04-23T13:32:32.229Z,7.20
2023-04-23T13:35:39.188Z,9.20
2023-04-23T13:38:46.127Z,10.90
2023-04-23T13:42:06.148Z,7.50
2023-04-23T13:45:17.282Z,7.90
2023-04-23T13:48:28.874Z,6.30
2023-04-23T13:51:36.098Z,8.90
2023-04-23T13:54:42.842Z,7.00
2023-04-23T13:57:49.260Z,8.80
2023-04-23T14:00:56.785Z,6.90
2023-04-23T14:04:04.302Z,12.30
2023-04-23T14:07:12.202Z,6.60
2023-04-23T14:10:18.942Z,7.60
2023-04-23T14:13:25.916Z,6.70
2023-04-23T14:16:32.208Z,8.00
2023-04-23T14:19:38.764Z,6.50
2023-04-23T14:22:50.112Z,7.00
2023-04-23T14:26:05.179Z,9.40
2023-04-23T14:29:19.809Z,6.80
2023-04-23T14:32:26.729Z,6.80
2023-04-23T14:35:43.178Z,6.60
2023-04-23T14:38:50.143Z,6.50
2023-04-23T14:41:56.593Z,7.00
2023-04-23T14:45:05.005Z,7.60
2023-04-23T14:48:11.062Z,6.20
2023-04-23T14:51:17.402Z,7.70
2023-04-23T14:54:23.806Z,6.90
2023-04-23T14:57:31.252Z,8.00
2023-04-23T15:00:37.792Z,7.40
2023-04-23T15:03:46.109Z,6.80
2023-04-23T15:06:52.956Z,11.30
2023-04-23T15:09:59.464Z,7.00
2023-04-23T15:13:10.945Z,7.10
2023-04-23T15:16:47.335Z,7.20
2023-04-23T15:19:56.602Z,5.80
2023-04-23T15:23:03.088Z,6.80
2023-04-23T15:26:09.485Z,9.20
2023-04-23T15:29:15.657Z,6.80
2023-04-23T15:32:21.890Z,7.10
2023-04-23T15:35:29.871Z,6.80
2023-04-23T15:38:36.213Z,7.00
2023-04-23T15:41:44.770Z,8.40
2023-04-23T15:44:54.741Z,6.90
2023-04-23T15:48:00.994Z,6.30
2023-04-23T15:51:07.680Z,6.90
2023-04-23T15:54:14.238Z,9.70
2023-04-23T15:57:20.343Z,8.60
2023-04-23T16:00:27.164Z,7.30
2023-04-23T16:03:33.368Z,6.80
2023-04-23T16:06:40.217Z,7.60
2023-04-23T16:09:46.484Z,6.00
2023-04-23T16:12:55.172Z,7.00
2023-04-23T16:16:01.338Z,8.40
2023-04-23T16:19:07.712Z,8.00
2023-04-23T16:22:14.918Z,7.80
2023-04-23T16:25:21.861Z,7.30
2023-04-23T16:28:28.640Z,8.10
2023-04-23T16:31:35.930Z,6.70
2023-04-23T16:34:42.930Z,7.10
2023-04-23T16:37:49.852Z,9.30
2023-04-23T16:40:55.797Z,7.40
2023-04-23T16:44:02.203Z,10.70
2023-04-23T16:47:08.409Z,9.00
2023-04-23T16:50:15.222Z,7.80
2023-04-23T16:53:21.411Z,9.70
2023-04-23T16:56:28.823Z,9.40
2023-04-23T16:59:35.256Z,7.70
2023-04-23T17:02:42.948Z,9.20
2023-04-23T17:05:51.780Z,11.20
2023-04-23T17:09:01.298Z,9.40
2023-04-23T17:12:08.148Z,9.90
2023-04-23T17:15:15.080Z,11.80
2023-04-23T17:18:21.332Z,9.10
2023-04-23T17:21:28.219Z,13.40
2023-04-23T17:24:35.223Z,9.50
2023-04-23T17:27:43.318Z,11.80
2023-04-23T17:30:50.545Z,12.40
2023-04-23T17:33:58.561Z,9.40
2023-04-23T17:37:04.634Z,8.30
2023-04-23T17:40:13.203Z,9.80
2023-04-23T17:43:19.848Z,8.50
2023-04-23T17:46:26.736Z,6.90
2023-04-23T17:49:33.290Z,7.50
2023-04-23T17:52:41.254Z,9.90
2023-04-23T17:55:47.844Z,7.20
2023-04-23T17:58:54.271Z,8.70
2023-04-23T18:02:00.471Z,8.10
2023-04-23T18:05:07.481Z,9.20
2023-04-23T18:08:15.804Z,6.50
2023-04-23T18:11:23.025Z,7.10
2023-04-23T18:14:30.081Z,8.70
2023-04-23T18:17:38.195Z,7.40
2023-04-23T18:20:46.029Z,9.10
2023-04-23T18:23:52.572Z,9.40
2023-04-23T18:26:59.497Z,6.90
2023-04-23T18:30:07.842Z,8.30
2023-04-23T18:33:27.536Z,7.00
2023-04-23T18:36:37.755Z,7.10
2023-04-23T18:39:44.321Z,6.90
2023-04-23T18:42:50.931Z,9.30
2023-04-23T18:45:57.020Z,9.20
2023-04-23T18:49:13.469Z,7.80
2023-04-23T18:52:19.838Z,7.00
2023-04-23T18:55:26.118Z,8.90
2023-04-23T18:58:32.770Z,12.30
2023-04-23T19:01:40.363Z,8.10
2023-04-23T19:04:46.743Z,8.50
2023-04-23T19:07:53.537Z,9.70
2023-04-23T19:11:00.005Z,9.10
2023-04-23T19:14:06.410Z,9.00
2023-04-23T19:17:12.600Z,7.80
2023-04-23T19:20:19.236Z,8.30
2023-04-23T19:23:25.481Z,8.80
2023-04-23T19:26:31.883Z,9.80
2023-04-23T19:29:37.925Z,9.60
2023-04-23T19:32:44.283Z,8.80
2023-04-23T19:35:51.697Z,9.60
2023-04-23T19:38:58.168Z,9.70
2023-04-23T19:42:04.640Z,8.00
2023-04-23T19:45:12.241Z,7.50
2023-04-23T19:48:18.512Z,10.20
2023-04-23T19:51:29.883Z,10.00
2023-04-23T19:54:36.071Z,9.00
2023-04-23T19:57:42.819Z,8.40
2023-04-23T20:00:49.169Z,9.50
2023-04-23T20:03:56.151Z,8.10
2023-04-23T20:07:02.369Z,7.70
2023-04-23T20:10:10.722Z,9.30
2023-04-23T20:13:17.524Z,7.60
2023-04-23T20:16:23.852Z,10.10
2023-04-23T20:19:31.429Z,8.30
2023-04-23T20:22:37.962Z,8.40
2023-04-23T20:25:44.204Z,8.90
2023-04-23T20:28:51.788Z,8.60
2023-04-23T20:31:58.238Z,7.60
2023-04-23T20:35:04.640Z,10.90
2023-04-23T20:38:11.025Z,9.30
2023-04-23T20:41:17.730Z,7.30
2023-04-23T20:44:24.527Z,9.50
2023-04-23T20:47:32.346Z,9.00
2023-04-23T20:50:38.983Z,7.80
2023-04-23T20:53:45.981Z,7.50
2023-04-23T20:56:54.274Z,8.10
2023-04-23T21:00:00.542Z,8.00
2023-04-23T21:03:07.269Z,8.00
2023-04-23T21:06:13.729Z,7.70
2023-04-23T21:09:20.408Z,8.90
2023-04-23T21:12:27.234Z,9.80
2023-04-23T21:15:35.368Z,8.60
2023-04-23T21:18:42.236Z,10.30
2023-04-23T21:21:48.462Z,9.40
2023-04-23T21:24:54.781Z,7.30
2023-04-23T21:28:01.682Z,7.90
2023-04-23T21:31:23.509Z,7.90
2023-04-23T21:34:30.173Z,8.20
2023-04-23T21:37:37.718Z,8.30
2023-04-23T21:40:44.169Z,9.50
2023-04-23T21:43:50.538Z,9.20
2023-04-23T21:46:56.967Z,9.20
2023-04-23T21:50:05.446Z,7.80
2023-04-23T21:53:13.192Z,8.30
2023-04-23T21:56:19.520Z,8.90
2023-04-23T21:59:26.009Z,8.00
2023-04-23T22:02:32.597Z,8.50
2023-04-23T22:05:39.742Z,11.10
2023-04-23T22:08:46.949Z,11.80
2023-04-23T22:12:02.013Z,8.00
2023-04-23T22:15:13.223Z,10.10
2023-04-23T22:18:19.296Z,7.80
2023-04-23T22:21:25.629Z,9.10
2023-04-23T22:24:31.796Z,7.10
2023-04-23T22:27:39.060Z,9.90
2023-04-23T22:30:45.433Z,8.60
2023-04-23T22:33:51.968Z,9.10
2023-04-23T22:36:58.517Z,9.50
2023-04-23T22:40:05.682Z,8.70
2023-04-23T22:43:12.793Z,8.30
2023-04-23T22:46:19.422Z,10.00
2023-04-23T22:49:25.894Z,8.20
2023-04-23T22:52:32.958Z,8.90
2023-04-23T22:55:39.571Z,8.00
2023-04-23T22:58:45.834Z,9.20
2023-04-23T23:01:52.549Z,7.80
2023-04-23T23:04:58.862Z,8.90
2023-04-23T23:08:06.881Z,10.30
2023-04-23T23:11:13.101Z,8.60
2023-04-23T23:14:19.456Z,10.60
2023-04-23T23:17:25.711Z,9.10
2023-04-23T23:20:31.996Z,8.20
2023-04-23T23:23:39.368Z,10.30
2023-04-23T23:26:46.714Z,10.80
2023-04-23T23:29:53.271Z,8.40
2023-04-23T23:32:59.850Z,9.60
2023-04-23T23:36:07.120Z,10.40
2023-04-23T23:39:14.210Z,10.70
2023-04-23T23:42:20.573Z,9.10
2023-04-23T23:45:27.235Z,9.00
2023-04-23T23:48:33.628Z,9.70
2023-04-23T23:51:40.222Z,10.20
2023-04-23T23:54:46.571Z,13.50
2023-04-23T23:57:52.855Z,10.10
